createdAt,value
2023-05-05T00:02:00.810Z,91445.66
2023-05-05T00:04:27.222Z,91441.53
2023-05-05T00:06:53.546Z,91445.88
2023-05-05T00:09:19.819Z,91438.81
2023-05-05T00:11:46.121Z,91439.72
2023-05-05T00:14:12.514Z,91436.19
2023-05-05T00:16:38.862Z,91445.16
2023-05-05T00:19:05.505Z,91445.78
2023-05-05T00:21:31.765Z,91444.97
2023-05-05T00:23:58.064Z,91438.53
2023-05-05T00:26:24.395Z,91446.41
2023-05-05T00:28:52.014Z,91451.44
2023-05-05T00:31:18.351Z,91444.16
2023-05-05T00:33:44.692Z,91448.09
2023-05-05T00:36:10.992Z,91447.66
2023-05-05T00:38:38.011Z,91446.94
2023-05-05T00:41:04.318Z,91451.41
2023-05-05T00:43:30.634Z,91446.25
2023-05-05T00:46:01.811Z,91438.97
2023-05-05T00:48:31.113Z,91439.13
2023-05-05T00:50:57.449Z,91448.78
2023-05-05T00:53:23.744Z,91444.75
2023-05-05T00:55:51.082Z,91441.06
2023-05-05T00:58:17.374Z,91442.63
2023-05-05T01:00:44.354Z,91439.41
2023-05-05T01:03:12.827Z,91441.22
2023-05-05T01:05:51.389Z,91430.28
2023-05-05T01:08:37.925Z,91436.19
2023-05-05T01:11:09.932Z,91434.22
2023-05-05T01:13:42.622Z,91434.47
2023-05-05T01:16:16.784Z,91428.34
2023-05-05T01:19:01.929Z,91432.41
2023-05-05T01:21:32.587Z,91428.34
2023-05-05T01:24:17.737Z,91426.41
2023-05-05T01:26:56.212Z,91428.19
2023-05-05T01:29:40.999Z,91426.78
2023-05-05T01:32:14.212Z,91423.84
2023-05-05T01:34:41.994Z,91427.06
2023-05-05T01:37:10.305Z,91420.06
2023-05-05T01:39:36.578Z,91423.31
2023-05-05T01:42:04.834Z,91423.97
2023-05-05T01:44:31.222Z,91424.69
2023-05-05T01:46:57.506Z,91422.03
2023-05-05T01:49:23.885Z,91421.75
2023-05-05T01:51:50.176Z,91421.75
2023-05-05T01:54:16.516Z,91415.03
2023-05-05T01:56:42.805Z,91424.41
2023-05-05T01:59:09.862Z,91421.47
2023-05-05T02:01:37.430Z,91423.72
2023-05-05T02:04:03.726Z,91421.06
2023-05-05T02:06:32.296Z,91418.25
2023-05-05T02:08:58.594Z,91413.91
2023-05-05T02:11:25.040Z,91415.88
2023-05-05T02:13:51.391Z,91410.81
2023-05-05T02:16:17.806Z,91414.75
2023-05-05T02:18:44.189Z,91414.16
2023-05-05T02:21:10.623Z,91410.56
2023-05-05T02:23:36.930Z,91409.41
2023-05-05T02:26:04.877Z,91408.72
2023-05-05T02:28:42.050Z,91413.78
2023-05-05T02:31:08.684Z,91411.13
2023-05-05T02:33:35.104Z,91411.38
2023-05-05T02:36:10.384Z,91420.78
2023-05-05T02:38:37.113Z,91417.00
2023-05-05T02:41:03.765Z,91418.38
2023-05-05T02:43:30.434Z,91414.91
2023-05-05T02:45:56.795Z,91408.81
2023-05-05T02:48:23.157Z,91410.97
2023-05-05T02:50:49.464Z,91409.44
2023-05-05T02:53:15.862Z,91414.63
2023-05-05T02:56:01.689Z,91412.72
2023-05-05T02:58:38.461Z,91410.00
2023-05-05T03:01:04.763Z,91405.50
2023-05-05T03:03:34.612Z,91409.56
2023-05-05T03:06:02.711Z,91414.75
2023-05-05T03:08:45.833Z,91408.88
2023-05-05T03:11:14.817Z,91413.19
2023-05-05T03:13:42.770Z,91402.78
2023-05-05T03:16:09.372Z,91411.56
2023-05-05T03:18:35.745Z,91405.25
2023-05-05T03:21:08.339Z,91403.81
2023-05-05T03:23:34.946Z,91405.91
2023-05-05T03:26:01.245Z,91406.44
2023-05-05T03:28:27.575Z,91401.94
2023-05-05T03:30:53.846Z,91404.16
2023-05-05T03:33:20.146Z,91400.88
2023-05-05T03:35:46.426Z,91397.25
2023-05-05T03:38:12.706Z,91401.19
2023-05-05T03:40:44.165Z,91395.88
2023-05-05T03:43:11.195Z,91397.34
2023-05-05T03:45:37.546Z,91397.25
2023-05-05T03:48:04.076Z,91394.56
2023-05-05T03:50:30.847Z,91390.78
2023-05-05T03:52:57.124Z,91384.59
2023-05-05T03:55:24.439Z,91396.47
2023-05-05T03:57:50.728Z,91395.66
2023-05-05T04:00:17.134Z,91394.13
2023-05-05T04:02:43.538Z,91395.13
2023-05-05T04:05:09.982Z,91400.81
2023-05-05T04:07:36.273Z,91404.13
2023-05-05T04:10:02.633Z,91398.53
2023-05-05T04:12:28.905Z,91400.78
2023-05-05T04:14:55.204Z,91402.31
2023-05-05T04:17:21.522Z,91391.72
2023-05-05T04:19:47.857Z,91398.84
2023-05-05T04:22:14.149Z,91413.81
2023-05-05T04:24:40.768Z,91408.47
2023-05-05T04:27:07.085Z,91412.16
2023-05-05T04:29:33.364Z,91405.72
2023-05-05T04:31:59.657Z,91415.38
2023-05-05T04:34:26.048Z,91417.88
2023-05-05T04:36:52.379Z,91416.41
2023-05-05T04:39:18.966Z,91404.13
2023-05-05T04:41:45.260Z,91408.66
2023-05-05T04:44:11.559Z,91409.94
2023-05-05T04:46:37.913Z,91409.63
2023-05-05T04:49:05.720Z,91415.91
2023-05-05T04:51:32.234Z,91417.31
2023-05-05T04:53:58.518Z,91421.94
2023-05-05T04:56:25.070Z,91416.41
2023-05-05T04:58:51.385Z,91413.56
2023-05-05T05:01:17.665Z,91414.09
2023-05-05T05:03:44.086Z,91418.19
2023-05-05T05:06:10.472Z,91410.28
2023-05-05T05:08:36.782Z,91411.31
2023-05-05T05:11:03.083Z,91412.69
2023-05-05T05:13:29.358Z,91411.84
2023-05-05T05:15:55.677Z,91414.50
2023-05-05T05:18:21.956Z,91406.69
2023-05-05T05:20:48.238Z,91412.34
2023-05-05T05:23:14.528Z,91414.47
2023-05-05T05:25:40.882Z,91409.28
2023-05-05T05:28:10.526Z,91408.16
2023-05-05T05:30:37.168Z,91416.41
2023-05-05T05:33:03.548Z,91413.91
2023-05-05T05:35:29.876Z,91419.06
2023-05-05T05:37:56.224Z,91414.31
2023-05-05T05:40:22.549Z,91423.56
2023-05-05T05:42:48.850Z,91413.13
2023-05-05T05:45:15.145Z,91425.84
2023-05-05T05:47:41.549Z,91426.38
2023-05-05T05:50:08.278Z,91423.16
2023-05-05T05:52:36.082Z,91419.81
2023-05-05T05:55:02.378Z,91421.31
2023-05-05T05:57:28.682Z,91431.06
2023-05-05T05:59:55.060Z,91421.03
2023-05-05T06:02:21.528Z,91424.16
2023-05-05T06:04:47.942Z,91429.09
2023-05-05T06:07:14.334Z,91426.53
2023-05-05T06:09:41.358Z,91420.38
2023-05-05T06:12:07.679Z,91425.16
2023-05-05T06:14:34.036Z,91426.94
2023-05-05T06:17:00.326Z,91421.13
2023-05-05T06:19:26.605Z,91424.41
2023-05-05T06:21:52.900Z,91426.81
2023-05-05T06:24:19.199Z,91423.59
2023-05-05T06:26:45.503Z,91418.75
2023-05-05T06:29:12.354Z,91426.84
2023-05-05T06:31:38.911Z,91419.59
2023-05-05T06:34:05.230Z,91425.25
2023-05-05T06:36:32.216Z,91423.50
2023-05-05T06:38:58.528Z,91416.03
2023-05-05T06:41:24.798Z,91413.91
2023-05-05T06:43:51.069Z,91411.84
2023-05-05T06:46:17.527Z,91416.78
2023-05-05T06:48:44.013Z,91416.03
2023-05-05T06:51:10.299Z,91418.06
2023-05-05T06:53:36.601Z,91411.00
2023-05-05T06:56:02.884Z,91411.50
2023-05-05T06:58:29.212Z,91413.22
2023-05-05T07:00:55.583Z,91412.38
2023-05-05T07:03:21.984Z,91411.09
2023-05-05T07:05:48.373Z,91405.13
2023-05-05T07:08:14.679Z,91407.88
2023-05-05T07:10:41.721Z,91409.66
2023-05-05T07:13:08.328Z,91401.22
2023-05-05T07:15:34.858Z,91404.22
2023-05-05T07:18:01.239Z,91402.00
2023-05-05T07:20:27.693Z,91403.66
2023-05-05T07:22:54.101Z,91402.88
2023-05-05T07:25:20.747Z,91401.09
2023-05-05T07:27:47.070Z,91397.28
2023-05-05T07:30:17.232Z,91398.97
2023-05-05T07:32:44.589Z,91398.97
2023-05-05T07:35:11.260Z,91399.28
2023-05-05T07:37:37.571Z,91398.06
2023-05-05T07:40:03.974Z,91393.28
2023-05-05T07:42:30.289Z,91399.06
2023-05-05T07:44:56.574Z,91401.66
2023-05-05T07:47:22.916Z,91395.81
2023-05-05T07:49:49.298Z,91386.81
2023-05-05T07:52:15.609Z,91388.78
2023-05-05T07:54:42.384Z,91388.78
2023-05-05T07:57:08.713Z,91379.97
2023-05-05T07:59:35.145Z,91373.91
2023-05-05T08:02:01.473Z,91381.13
2023-05-05T08:04:27.877Z,91382.41
2023-05-05T08:06:54.246Z,91378.00
2023-05-05T08:09:20.540Z,91364.97
2023-05-05T08:11:46.852Z,91365.53
2023-05-05T08:14:13.143Z,91373.47
2023-05-05T08:16:39.430Z,91366.91
2023-05-05T08:19:14.626Z,91359.72
2023-05-05T08:21:47.793Z,91358.66
2023-05-05T08:24:14.097Z,91352.69
2023-05-05T08:26:40.402Z,91351.41
2023-05-05T08:29:06.703Z,91346.63
2023-05-05T08:31:33.271Z,91344.69
2023-05-05T08:33:59.571Z,91348.63
2023-05-05T08:36:27.147Z,91346.53
2023-05-05T08:38:53.450Z,91340.13
2023-05-05T08:41:19.850Z,91337.91
2023-05-05T08:43:46.354Z,91339.75
2023-05-05T08:46:12.719Z,91335.22
2023-05-05T08:48:39.358Z,91333.56
2023-05-05T08:51:05.788Z,91331.84
2023-05-05T08:53:45.725Z,91326.63
2023-05-05T08:56:12.822Z,91327.44
2023-05-05T08:58:39.120Z,91334.16
2023-05-05T09:01:05.482Z,91330.50
2023-05-05T09:03:31.861Z,91331.41
2023-05-05T09:05:58.171Z,91327.19
2023-05-05T09:08:24.457Z,91325.72
2023-05-05T09:10:51.008Z,91325.56
2023-05-05T09:13:17.421Z,91324.38
2023-05-05T09:15:43.787Z,91314.81
2023-05-05T09:18:12.031Z,91321.06
2023-05-05T09:20:38.599Z,91321.47
2023-05-05T09:23:10.527Z,91319.34
2023-05-05T09:25:36.845Z,91316.59
2023-05-05T09:28:15.675Z,91316.41
2023-05-05T09:30:43.189Z,91317.22
2023-05-05T09:33:09.651Z,91302.06
2023-05-05T09:35:49.257Z,91308.53
2023-05-05T09:38:15.654Z,91303.56
2023-05-05T09:40:51.736Z,91294.44
2023-05-05T09:43:18.746Z,91297.88
2023-05-05T09:45:45.116Z,91297.50
2023-05-05T09:48:23.860Z,91293.00
2023-05-05T09:50:50.208Z,91291.31
2023-05-05T09:53:16.584Z,91288.88
2023-05-05T09:55:51.900Z,91287.78
2023-05-05T09:58:19.236Z,91282.88
2023-05-05T10:00:46.406Z,91287.56
2023-05-05T10:03:12.811Z,91282.09
2023-05-05T10:05:52.038Z,91276.75
2023-05-05T10:08:19.093Z,91270.84
2023-05-05T10:10:46.420Z,91269.19
2023-05-05T10:13:12.878Z,91275.66
2023-05-05T10:15:39.379Z,91266.03
2023-05-05T10:18:07.834Z,91258.19
2023-05-05T10:20:36.138Z,91266.09
2023-05-05T10:23:02.659Z,91251.41
2023-05-05T10:25:30.496Z,91252.69
2023-05-05T10:27:58.764Z,91263.16
2023-05-05T10:30:33.997Z,91243.88
2023-05-05T10:33:14.121Z,91252.56
2023-05-05T10:35:47.217Z,91257.28
2023-05-05T10:38:13.493Z,91250.78
2023-05-05T10:40:43.243Z,91254.00
2023-05-05T10:43:09.571Z,91245.53
2023-05-05T10:45:36.538Z,91245.00
2023-05-05T10:48:03.985Z,91241.75
2023-05-05T10:50:36.528Z,91236.59
2023-05-05T10:53:18.092Z,91237.69
2023-05-05T10:55:46.079Z,91235.19
2023-05-05T10:58:31.111Z,91235.94
2023-05-05T11:00:57.456Z,91237.59
2023-05-05T11:03:24.092Z,91226.06
2023-05-05T11:06:08.571Z,91225.78
2023-05-05T11:08:35.465Z,91225.41
2023-05-05T11:11:01.917Z,91215.69
2023-05-05T11:13:28.252Z,91211.38
2023-05-05T11:15:54.944Z,91214.03
2023-05-05T11:18:35.599Z,91217.19
2023-05-05T11:21:01.971Z,91209.91
2023-05-05T11:23:28.535Z,91206.25
2023-05-05T11:25:55.116Z,91207.13
2023-05-05T11:28:23.192Z,91192.66
2023-05-05T11:30:59.015Z,91198.72
2023-05-05T11:33:38.616Z,91194.06
2023-05-05T11:36:06.957Z,91191.00
2023-05-05T11:38:42.881Z,91179.13
2023-05-05T11:41:13.803Z,91180.75
2023-05-05T11:43:40.137Z,91182.56
2023-05-05T11:46:10.739Z,91181.44
2023-05-05T11:48:49.596Z,91182.31
2023-05-05T11:51:16.295Z,91171.22
2023-05-05T11:53:43.762Z,91177.75
2023-05-05T11:56:10.277Z,91184.84
2023-05-05T11:58:36.673Z,91187.84
2023-05-05T12:01:06.603Z,91178.56
2023-05-05T12:03:36.516Z,91184.41
2023-05-05T12:06:03.488Z,91183.50
2023-05-05T12:08:35.340Z,91182.72
2023-05-05T12:11:02.217Z,91178.03
2023-05-05T12:13:29.853Z,91175.59
2023-05-05T12:15:56.322Z,91172.81
2023-05-05T12:18:22.630Z,91168.44
2023-05-05T12:20:48.931Z,91164.69
2023-05-05T12:23:15.494Z,91162.84
2023-05-05T12:25:41.998Z,91167.22
2023-05-05T12:28:08.427Z,91165.00
2023-05-05T12:30:34.737Z,91162.16
2023-05-05T12:33:04.697Z,91165.28
2023-05-05T12:35:31.317Z,91164.94
2023-05-05T12:37:58.385Z,91156.03
2023-05-05T12:40:43.850Z,91151.50
2023-05-05T12:43:10.847Z,91147.44
2023-05-05T12:45:37.206Z,91145.00
2023-05-05T12:48:20.895Z,91157.22
2023-05-05T12:50:47.196Z,91151.16
2023-05-05T12:53:20.290Z,91148.13
2023-05-05T12:55:46.592Z,91150.38
2023-05-05T12:58:12.874Z,91135.25
2023-05-05T13:00:39.145Z,91140.75
2023-05-05T13:03:06.201Z,91130.53
2023-05-05T13:05:33.156Z,91132.16
2023-05-05T13:07:59.653Z,91127.09
2023-05-05T13:10:26.925Z,91125.16
2023-05-05T13:12:56.736Z,91118.97
2023-05-05T13:15:23.649Z,91111.00
2023-05-05T13:17:49.983Z,91120.31
2023-05-05T13:20:16.399Z,91111.09
2023-05-05T13:22:42.685Z,91114.50
2023-05-05T13:25:09.187Z,91105.72
2023-05-05T13:27:37.677Z,91104.09
2023-05-05T13:30:04.300Z,91102.44
2023-05-05T13:32:30.669Z,91105.13
2023-05-05T13:34:57.834Z,91110.44
2023-05-05T13:37:24.230Z,91103.84
2023-05-05T13:39:51.276Z,91109.66
2023-05-05T13:42:17.580Z,91102.66
2023-05-05T13:44:43.911Z,91100.38
2023-05-05T13:47:10.259Z,91092.50
2023-05-05T13:49:36.676Z,91090.06
2023-05-05T13:52:02.973Z,91092.66
2023-05-05T13:54:29.244Z,91088.16
2023-05-05T13:56:55.580Z,91081.22
2023-05-05T13:59:21.895Z,91090.84
2023-05-05T14:01:48.184Z,91085.13
2023-05-05T14:04:14.548Z,91081.91
2023-05-05T14:06:40.884Z,91085.28
2023-05-05T14:09:07.930Z,91077.22
2023-05-05T14:11:34.319Z,91063.88
2023-05-05T14:14:00.658Z,91070.41
2023-05-05T14:16:26.977Z,91068.69
2023-05-05T14:18:53.313Z,91066.78
2023-05-05T14:21:19.641Z,91075.03
2023-05-05T14:23:45.988Z,91076.59
2023-05-05T14:26:12.284Z,91068.88
2023-05-05T14:28:38.604Z,91071.66
2023-05-05T14:31:05.007Z,91073.56
2023-05-05T14:33:31.330Z,91060.56
2023-05-05T14:35:57.629Z,91066.03
2023-05-05T14:38:23.951Z,91072.41
2023-05-05T14:40:50.269Z,91076.41
2023-05-05T14:43:16.601Z,91067.34
2023-05-05T14:45:44.117Z,91067.09
2023-05-05T14:48:10.566Z,91071.50
2023-05-05T14:50:36.884Z,91065.06
2023-05-05T14:53:03.260Z,91068.50
2023-05-05T14:55:29.562Z,91077.25
2023-05-05T14:57:55.851Z,91068.69
2023-05-05T15:00:22.145Z,91068.69
2023-05-05T15:02:48.628Z,91077.31
2023-05-05T15:05:15.059Z,91073.88
2023-05-05T15:07:41.352Z,91074.19
2023-05-05T15:10:07.865Z,91074.34
2023-05-05T15:12:34.304Z,91071.75
2023-05-05T15:15:00.698Z,91073.84
2023-05-05T15:17:27.018Z,91069.06
2023-05-05T15:19:53.474Z,91075.72
2023-05-05T15:22:19.759Z,91078.63
2023-05-05T15:24:46.244Z,91074.75
2023-05-05T15:27:12.553Z,91072.75
2023-05-05T15:29:38.891Z,91077.75
2023-05-05T15:32:05.550Z,91083.44
2023-05-05T15:34:31.958Z,91089.78
2023-05-05T15:36:58.227Z,91082.81
2023-05-05T15:39:24.528Z,91091.22
2023-05-05T15:41:50.860Z,91090.63
2023-05-05T15:44:17.147Z,91085.56
2023-05-05T15:46:43.612Z,91092.94
2023-05-05T15:49:09.954Z,91089.28
2023-05-05T15:51:36.273Z,91082.41
2023-05-05T15:54:02.556Z,91080.09
2023-05-05T15:56:29.294Z,91077.59
2023-05-05T15:58:56.636Z,91078.66
2023-05-05T16:01:23.030Z,91083.13
2023-05-05T16:03:49.333Z,91083.34
2023-05-05T16:06:15.637Z,91083.31
2023-05-05T16:08:42.107Z,91085.22
2023-05-05T16:11:08.397Z,91099.41
2023-05-05T16:13:34.709Z,91096.16
2023-05-05T16:16:01.354Z,91105.53
2023-05-05T16:18:27.677Z,91108.63
2023-05-05T16:20:53.945Z,91107.56
2023-05-05T16:23:20.216Z,91119.28
2023-05-05T16:25:46.514Z,91118.75
2023-05-05T16:28:12.806Z,91138.50
2023-05-05T16:30:39.857Z,91138.16
2023-05-05T16:33:06.814Z,91153.06
2023-05-05T16:35:33.201Z,91150.78
2023-05-05T16:37:59.582Z,91146.06
2023-05-05T16:40:25.871Z,91122.47
2023-05-05T16:42:52.178Z,91115.38
2023-05-05T16:45:18.501Z,91115.31
2023-05-05T16:47:44.825Z,91119.69
2023-05-05T16:50:11.277Z,91113.25
2023-05-05T16:52:37.547Z,91115.72
2023-05-05T16:55:04.757Z,91113.97
2023-05-05T16:57:31.367Z,91117.25
2023-05-05T16:59:57.766Z,91120.03
2023-05-05T17:02:24.171Z,91112.00
2023-05-05T17:04:50.710Z,91112.84
2023-05-05T17:07:17.040Z,91113.78
2023-05-05T17:09:43.342Z,91116.06
2023-05-05T17:12:09.674Z,91120.13
2023-05-05T17:14:35.987Z,91118.75
2023-05-05T17:17:02.304Z,91128.44
2023-05-05T17:19:28.642Z,91132.44
2023-05-05T17:21:55.132Z,91139.38
2023-05-05T17:24:21.517Z,91134.88
2023-05-05T17:26:47.850Z,91135.22
2023-05-05T17:29:15.156Z,91119.72
2023-05-05T17:31:41.940Z,91131.72
2023-05-05T17:34:08.278Z,91137.38
2023-05-05T17:36:35.392Z,91136.00
2023-05-05T17:39:01.703Z,91149.41
2023-05-05T17:41:27.964Z,91149.22
2023-05-05T17:43:54.282Z,91154.34
2023-05-05T17:46:20.756Z,91147.34
2023-05-05T17:48:47.262Z,91156.84
2023-05-05T17:51:13.570Z,91159.63
2023-05-05T17:53:39.911Z,91168.19
2023-05-05T17:56:08.565Z,91169.75
2023-05-05T17:58:35.285Z,91169.16
2023-05-05T18:01:01.643Z,91171.94
2023-05-05T18:03:28.256Z,91165.81
2023-05-05T18:05:54.774Z,91171.34
2023-05-05T18:08:21.080Z,91179.09
2023-05-05T18:10:47.441Z,91179.19
2023-05-05T18:13:13.857Z,91175.13
2023-05-05T18:15:40.294Z,91183.16
2023-05-05T18:18:07.050Z,91183.66
2023-05-05T18:20:33.455Z,91182.78
2023-05-05T18:22:59.745Z,91184.25
2023-05-05T18:25:26.151Z,91190.97
2023-05-05T18:27:52.458Z,91186.22
2023-05-05T18:30:19.166Z,91184.34
2023-05-05T18:32:45.525Z,91185.53
2023-05-05T18:35:12.114Z,91186.41
2023-05-05T18:37:39.387Z,91195.81
2023-05-05T18:40:06.555Z,91184.75
2023-05-05T18:42:32.868Z,91181.03
2023-05-05T18:44:59.173Z,91189.56
2023-05-05T18:47:26.214Z,91195.41
2023-05-05T18:49:52.547Z,91203.72
2023-05-05T18:52:18.843Z,91199.94
2023-05-05T18:54:45.233Z,91212.78
2023-05-05T18:57:11.502Z,91211.34
2023-05-05T18:59:37.796Z,91219.03
2023-05-05T19:02:04.154Z,91211.44
2023-05-05T19:04:32.078Z,91226.16
2023-05-05T19:06:58.726Z,91221.88
2023-05-05T19:09:25.029Z,91227.66
2023-05-05T19:11:51.443Z,91227.00
2023-05-05T19:14:17.761Z,91230.25
2023-05-05T19:16:44.143Z,91233.78
2023-05-05T19:19:13.268Z,91233.31
2023-05-05T19:21:39.691Z,91235.91
2023-05-05T19:24:09.107Z,91239.31
2023-05-05T19:26:35.677Z,91238.88
2023-05-05T19:29:02.069Z,91244.25
2023-05-05T19:31:30.534Z,91238.38
2023-05-05T19:34:00.339Z,91237.94
2023-05-05T19:36:27.619Z,91242.38
2023-05-05T19:38:53.976Z,91248.66
2023-05-05T19:41:20.802Z,91253.53
2023-05-05T19:43:47.160Z,91256.78
2023-05-05T19:46:14.030Z,91258.97
2023-05-05T19:48:40.684Z,91254.91
2023-05-05T19:51:07.000Z,91249.69
2023-05-05T19:53:33.294Z,91262.59
2023-05-05T19:55:59.614Z,91261.91
2023-05-05T19:58:25.943Z,91260.50
2023-05-05T20:00:52.281Z,91250.50
2023-05-05T20:03:18.669Z,91255.13
2023-05-05T20:05:45.046Z,91256.28
2023-05-05T20:08:11.346Z,91256.06
2023-05-05T20:10:37.646Z,91268.16
2023-05-05T20:13:04.029Z,91262.59
2023-05-05T20:15:32.007Z,91267.69
2023-05-05T20:17:59.467Z,91267.25
2023-05-05T20:20:25.781Z,91269.56
2023-05-05T20:22:52.916Z,91263.03
2023-05-05T20:25:19.296Z,91271.41
2023-05-05T20:27:45.746Z,91271.53
2023-05-05T20:30:12.375Z,91276.56
2023-05-05T20:32:38.868Z,91272.81
2023-05-05T20:35:06.072Z,91282.69
2023-05-05T20:37:32.443Z,91286.94
2023-05-05T20:39:58.759Z,91281.28
2023-05-05T20:42:27.493Z,91281.31
2023-05-05T20:44:53.777Z,91281.91
2023-05-05T20:47:20.074Z,91287.22
2023-05-05T20:49:46.378Z,91279.66
2023-05-05T20:52:12.723Z,91283.16
2023-05-05T20:54:39.115Z,91284.00
2023-05-05T20:57:06.811Z,91280.72
2023-05-05T20:59:33.131Z,91284.91
2023-05-05T21:01:59.442Z,91277.59
2023-05-05T21:04:25.893Z,91275.25
2023-05-05T21:06:52.181Z,91276.88
2023-05-05T21:09:19.607Z,91282.22
2023-05-05T21:11:46.353Z,91278.16
2023-05-05T21:14:12.745Z,91284.56
2023-05-05T21:16:39.177Z,91279.31
2023-05-05T21:19:05.690Z,91278.16
2023-05-05T21:21:32.056Z,91273.38
2023-05-05T21:23:58.436Z,91282.97
2023-05-05T21:26:24.955Z,91266.88
2023-05-05T21:28:51.721Z,91276.75
2023-05-05T21:31:22.181Z,91263.88
2023-05-05T21:33:54.200Z,91268.50
2023-05-05T21:36:21.197Z,91264.97
2023-05-05T21:38:47.573Z,91264.50
2023-05-05T21:41:13.889Z,91263.34
2023-05-05T21:43:40.215Z,91264.94
2023-05-05T21:46:06.502Z,91271.50
2023-05-05T21:48:32.912Z,91257.41
2023-05-05T21:50:59.260Z,91267.84
2023-05-05T21:53:25.569Z,91259.34
2023-05-05T21:55:51.945Z,91257.69
2023-05-05T21:58:18.236Z,91253.81
2023-05-05T22:00:44.978Z,91256.34
2023-05-05T22:03:11.422Z,91262.13
2023-05-05T22:05:37.801Z,91251.69
2023-05-05T22:08:04.150Z,91259.63
2023-05-05T22:10:30.432Z,91257.47
2023-05-05T22:12:57.864Z,91255.53
2023-05-05T22:15:27.681Z,91250.97
2023-05-05T22:17:56.406Z,91247.22
2023-05-05T22:20:22.787Z,91257.16
2023-05-05T22:22:49.081Z,91248.28
2023-05-05T22:25:15.557Z,91247.22
2023-05-05T22:27:41.931Z,91240.75
2023-05-05T22:30:08.809Z,91244.06
2023-05-05T22:32:35.217Z,91241.19
2023-05-05T22:35:01.585Z,91237.00
2023-05-05T22:37:28.046Z,91228.44
2023-05-05T22:39:54.386Z,91219.84
2023-05-05T22:42:20.856Z,91224.63
2023-05-05T22:44:47.172Z,91228.88
2023-05-05T22:47:13.555Z,91227.50
2023-05-05T22:49:39.908Z,91231.75
2023-05-05T22:52:06.244Z,91226.94
2023-05-05T22:54:32.566Z,91239.47
2023-05-05T22:56:58.960Z,91240.09
2023-05-05T22:59:25.288Z,91232.34
2023-05-05T23:01:51.576Z,91232.34
2023-05-05T23:04:17.919Z,91231.63
2023-05-05T23:06:44.813Z,91225.25
2023-05-05T23:09:11.111Z,91230.75
2023-05-05T23:11:37.411Z,91228.28
2023-05-05T23:14:03.775Z,91232.84
2023-05-05T23:16:30.120Z,91227.28
2023-05-05T23:18:56.436Z,91235.25
2023-05-05T23:21:22.735Z,91233.16
2023-05-05T23:23:49.359Z,91238.09
2023-05-05T23:26:15.673Z,91228.06
2023-05-05T23:28:41.981Z,91231.22
2023-05-05T23:31:08.541Z,91226.09
2023-05-05T23:33:34.882Z,91225.03
2023-05-05T23:36:01.155Z,91223.31
2023-05-05T23:38:27.522Z,91220.41
2023-05-05T23:40:53.804Z,91217.78
2023-05-05T23:43:20.222Z,91219.31
2023-05-05T23:45:46.505Z,91215.25
2023-05-05T23:48:12.857Z,91214.56
2023-05-05T23:50:39.386Z,91199.97
2023-05-05T23:53:05.658Z,91211.78
2023-05-05T23:55:31.950Z,91206.03
2023-05-05T23:57:58.266Z,91208.34
